sensor_id;sensor_type;location;lat;lon;timestamp;P1;durP1;ratioP1;P2;durP2;ratioP2
17727;SDS011;8984;49.268;12.302;2023-07-28T00:01:50;3.97;;;3.17;;
17727;SDS011;8984;49.268;12.302;2023-07-28T00:04:17;4.80;;;3.20;;
17727;SDS011;8984;49.268;12.302;2023-07-28T00:06:43;4.80;;;3.40;;
17727;SDS011;8984;49.268;12.302;2023-07-28T00:09:11;3.93;;;3.33;;
17727;SDS011;8984;49.268;12.302;2023-07-28T00:11:38;4.30;;;3.43;;
17727;SDS011;8984;49.268;12.302;2023-07-28T00:14:05;5.37;;;3.57;;
17727;SDS011;8984;49.268;12.302;2023-07-28T00:16:32;4.00;;;3.40;;
17727;SDS011;8984;49.268;12.302;2023-07-28T00:18:59;6.03;;;3.57;;
17727;SDS011;8984;49.268;12.302;2023-07-28T00:21:26;7.07;;;3.03;;
17727;SDS011;8984;49.268;12.302;2023-07-28T00:23:52;4.10;;;3.40;;
17727;SDS011;8984;49.268;12.302;2023-07-28T00:26:21;4.67;;;3.33;;
17727;SDS011;8984;49.268;12.302;2023-07-28T00:28:47;4.13;;;3.50;;
17727;SDS011;8984;49.268;12.302;2023-07-28T00:31:14;4.77;;;3.70;;
17727;SDS011;8984;49.268;12.302;2023-07-28T00:33:41;4.23;;;3.30;;
17727;SDS011;8984;49.268;12.302;2023-07-28T00:36:08;5.13;;;3.80;;
17727;SDS011;8984;49.268;12.302;2023-07-28T00:38:35;4.40;;;4.00;;
17727;SDS011;8984;49.268;12.302;2023-07-28T00:41:02;5.60;;;3.70;;
17727;SDS011;8984;49.268;12.302;2023-07-28T00:43:30;3.57;;;3.20;;
17727;SDS011;8984;49.268;12.302;2023-07-28T00:45:57;5.17;;;3.87;;
17727;SDS011;8984;49.268;12.302;2023-07-28T00:48:24;4.43;;;3.20;;
17727;SDS011;8984;49.268;12.302;2023-07-28T00:50:51;3.83;;;3.40;;
17727;SDS011;8984;49.268;12.302;2023-07-28T00:53:19;5.47;;;3.37;;
17727;SDS011;8984;49.268;12.302;2023-07-28T00:55:48;6.03;;;3.30;;
17727;SDS011;8984;49.268;12.302;2023-07-28T00:58:14;7.90;;;3.83;;
17727;SDS011;8984;49.268;12.302;2023-07-28T01:00:43;5.00;;;3.83;;
17727;SDS011;8984;49.268;12.302;2023-07-28T01:03:09;5.90;;;3.80;;
17727;SDS011;8984;49.268;12.302;2023-07-28T01:05:47;4.90;;;3.47;;
17727;SDS011;8984;49.268;12.302;2023-07-28T01:08:23;5.27;;;3.33;;
17727;SDS011;8984;49.268;12.302;2023-07-28T01:10:55;4.20;;;3.80;;
17727;SDS011;8984;49.268;12.302;2023-07-28T01:13:23;5.70;;;3.97;;
17727;SDS011;8984;49.268;12.302;2023-07-28T01:15:51;4.20;;;3.80;;
17727;SDS011;8984;49.268;12.302;2023-07-28T01:18:18;5.93;;;4.30;;
17727;SDS011;8984;49.268;12.302;2023-07-28T01:20:44;5.57;;;4.73;;
17727;SDS011;8984;49.268;12.302;2023-07-28T01:23:14;6.73;;;4.23;;
17727;SDS011;8984;49.268;12.302;2023-07-28T01:25:49;5.57;;;4.50;;
17727;SDS011;8984;49.268;12.302;2023-07-28T01:28:26;6.33;;;4.27;;
17727;SDS011;8984;49.268;12.302;2023-07-28T01:30:53;6.30;;;4.70;;
17727;SDS011;8984;49.268;12.302;2023-07-28T01:33:20;7.90;;;4.80;;
17727;SDS011;8984;49.268;12.302;2023-07-28T01:35:47;5.97;;;4.80;;
17727;SDS011;8984;49.268;12.302;2023-07-28T01:38:14;5.20;;;4.07;;
17727;SDS011;8984;49.268;12.302;2023-07-28T01:40:41;8.10;;;4.10;;
17727;SDS011;8984;49.268;12.302;2023-07-28T01:43:08;7.13;;;4.23;;
17727;SDS011;8984;49.268;12.302;2023-07-28T01:45:36;6.63;;;4.40;;
17727;SDS011;8984;49.268;12.302;2023-07-28T01:48:03;5.57;;;4.20;;
17727;SDS011;8984;49.268;12.302;2023-07-28T01:50:30;7.43;;;5.30;;
17727;SDS011;8984;49.268;12.302;2023-07-28T01:52:57;5.97;;;4.80;;
17727;SDS011;8984;49.268;12.302;2023-07-28T01:55:24;7.23;;;4.70;;
17727;SDS011;8984;49.268;12.302;2023-07-28T01:57:54;5.43;;;4.40;;
17727;SDS011;8984;49.268;12.302;2023-07-28T02:00:22;8.03;;;4.40;;
17727;SDS011;8984;49.268;12.302;2023-07-28T02:02:50;6.53;;;4.43;;
17727;SDS011;8984;49.268;12.302;2023-07-28T02:05:18;6.20;;;4.53;;
17727;SDS011;8984;49.268;12.302;2023-07-28T02:07:45;6.53;;;4.80;;
17727;SDS011;8984;49.268;12.302;2023-07-28T02:10:12;5.67;;;4.43;;
17727;SDS011;8984;49.268;12.302;2023-07-28T02:12:39;5.67;;;4.60;;
17727;SDS011;8984;49.268;12.302;2023-07-28T02:15:07;5.43;;;4.07;;
17727;SDS011;8984;49.268;12.302;2023-07-28T02:17:34;7.87;;;4.60;;
17727;SDS011;8984;49.268;12.302;2023-07-28T02:20:03;6.77;;;4.60;;
17727;SDS011;8984;49.268;12.302;2023-07-28T02:22:30;6.47;;;4.87;;
17727;SDS011;8984;49.268;12.302;2023-07-28T02:24:57;7.00;;;5.20;;
17727;SDS011;8984;49.268;12.302;2023-07-28T02:27:26;5.00;;;4.50;;
17727;SDS011;8984;49.268;12.302;2023-07-28T02:29:53;6.17;;;4.63;;
17727;SDS011;8984;49.268;12.302;2023-07-28T02:32:20;5.60;;;4.20;;
17727;SDS011;8984;49.268;12.302;2023-07-28T02:34:47;5.07;;;3.90;;
17727;SDS011;8984;49.268;12.302;2023-07-28T02:37:15;9.10;;;3.93;;
17727;SDS011;8984;49.268;12.302;2023-07-28T02:39:42;5.70;;;4.10;;
17727;SDS011;8984;49.268;12.302;2023-07-28T02:42:10;5.50;;;4.10;;
17727;SDS011;8984;49.268;12.302;2023-07-28T02:44:37;6.03;;;4.37;;
17727;SDS011;8984;49.268;12.302;2023-07-28T02:47:04;4.53;;;4.00;;
17727;SDS011;8984;49.268;12.302;2023-07-28T02:49:31;3.93;;;3.50;;
17727;SDS011;8984;49.268;12.302;2023-07-28T02:51:58;5.17;;;3.30;;
17727;SDS011;8984;49.268;12.302;2023-07-28T02:54:26;4.43;;;3.67;;
17727;SDS011;8984;49.268;12.302;2023-07-28T02:56:53;5.60;;;4.10;;
17727;SDS011;8984;49.268;12.302;2023-07-28T02:59:20;6.57;;;4.37;;
17727;SDS011;8984;49.268;12.302;2023-07-28T03:01:48;3.80;;;3.40;;
17727;SDS011;8984;49.268;12.302;2023-07-28T03:04:17;5.30;;;4.10;;
17727;SDS011;8984;49.268;12.302;2023-07-28T03:06:45;6.03;;;4.00;;
17727;SDS011;8984;49.268;12.302;2023-07-28T03:09:11;4.40;;;4.00;;
17727;SDS011;8984;49.268;12.302;2023-07-28T03:11:41;6.47;;;4.27;;
17727;SDS011;8984;49.268;12.302;2023-07-28T03:14:13;4.37;;;3.97;;
17727;SDS011;8984;49.268;12.302;2023-07-28T03:16:44;6.03;;;3.97;;
17727;SDS011;8984;49.268;12.302;2023-07-28T03:19:20;4.37;;;3.90;;
17727;SDS011;8984;49.268;12.302;2023-07-28T03:21:49;4.53;;;4.10;;
17727;SDS011;8984;49.268;12.302;2023-07-28T03:24:18;6.87;;;5.47;;
17727;SDS011;8984;49.268;12.302;2023-07-28T03:29:48;6.77;;;5.30;;
17727;SDS011;8984;49.268;12.302;2023-07-28T03:32:15;7.37;;;5.57;;
17727;SDS011;8984;49.268;12.302;2023-07-28T03:34:42;8.50;;;5.93;;
17727;SDS011;8984;49.268;12.302;2023-07-28T03:37:09;6.90;;;5.27;;
17727;SDS011;8984;49.268;12.302;2023-07-28T03:39:36;6.83;;;4.83;;
17727;SDS011;8984;49.268;12.302;2023-07-28T03:42:03;5.70;;;4.50;;
17727;SDS011;8984;49.268;12.302;2023-07-28T03:44:30;7.50;;;4.70;;
17727;SDS011;8984;49.268;12.302;2023-07-28T03:46:58;6.37;;;4.97;;
17727;SDS011;8984;49.268;12.302;2023-07-28T03:49:25;6.33;;;4.77;;
17727;SDS011;8984;49.268;12.302;2023-07-28T03:51:52;4.97;;;4.13;;
17727;SDS011;8984;49.268;12.302;2023-07-28T03:54:19;5.63;;;4.30;;
17727;SDS011;8984;49.268;12.302;2023-07-28T03:56:46;5.30;;;4.27;;
17727;SDS011;8984;49.268;12.302;2023-07-28T03:59:13;6.83;;;4.13;;
17727;SDS011;8984;49.268;12.302;2023-07-28T04:01:39;6.43;;;4.40;;
17727;SDS011;8984;49.268;12.302;2023-07-28T04:04:08;6.80;;;4.83;;
17727;SDS011;8984;49.268;12.302;2023-07-28T04:06:41;5.93;;;4.10;;
17727;SDS011;8984;49.268;12.302;2023-07-28T04:09:09;4.77;;;4.27;;
17727;SDS011;8984;49.268;12.302;2023-07-28T04:11:37;4.20;;;3.47;;
17727;SDS011;8984;49.268;12.302;2023-07-28T04:14:04;5.17;;;4.20;;
17727;SDS011;8984;49.268;12.302;2023-07-28T04:16:31;4.63;;;3.67;;
17727;SDS011;8984;49.268;12.302;2023-07-28T04:18:58;4.60;;;3.80;;
17727;SDS011;8984;49.268;12.302;2023-07-28T04:21:27;8.00;;;4.77;;
17727;SDS011;8984;49.268;12.302;2023-07-28T04:23:53;5.07;;;3.70;;
17727;SDS011;8984;49.268;12.302;2023-07-28T04:26:24;5.97;;;4.53;;
17727;SDS011;8984;49.268;12.302;2023-07-28T04:28:51;7.33;;;4.43;;
17727;SDS011;8984;49.268;12.302;2023-07-28T04:31:18;4.50;;;3.87;;
17727;SDS011;8984;49.268;12.302;2023-07-28T04:33:45;5.03;;;3.77;;
17727;SDS011;8984;49.268;12.302;2023-07-28T04:36:12;4.60;;;4.10;;
17727;SDS011;8984;49.268;12.302;2023-07-28T04:38:40;5.13;;;3.97;;
17727;SDS011;8984;49.268;12.302;2023-07-28T04:41:06;5.27;;;3.90;;
17727;SDS011;8984;49.268;12.302;2023-07-28T04:43:33;5.77;;;4.33;;
17727;SDS011;8984;49.268;12.302;2023-07-28T04:46:00;5.70;;;4.03;;
17727;SDS011;8984;49.268;12.302;2023-07-28T04:48:27;6.80;;;3.60;;
17727;SDS011;8984;49.268;12.302;2023-07-28T04:50:54;4.80;;;4.10;;
17727;SDS011;8984;49.268;12.302;2023-07-28T04:53:21;6.17;;;4.20;;
17727;SDS011;8984;49.268;12.302;2023-07-28T04:55:49;5.07;;;4.17;;
17727;SDS011;8984;49.268;12.302;2023-07-28T04:58:16;5.03;;;4.23;;
17727;SDS011;8984;49.268;12.302;2023-07-28T05:00:43;5.13;;;4.30;;
17727;SDS011;8984;49.268;12.302;2023-07-28T05:03:09;4.87;;;3.73;;
17727;SDS011;8984;49.268;12.302;2023-07-28T05:05:36;7.07;;;4.00;;
17727;SDS011;8984;49.268;12.302;2023-07-28T05:08:03;5.33;;;4.47;;
17727;SDS011;8984;49.268;12.302;2023-07-28T05:10:30;4.53;;;3.90;;
17727;SDS011;8984;49.268;12.302;2023-07-28T05:12:58;4.50;;;3.63;;
17727;SDS011;8984;49.268;12.302;2023-07-28T05:15:25;5.70;;;4.43;;
17727;SDS011;8984;49.268;12.302;2023-07-28T05:17:52;4.53;;;4.00;;
17727;SDS011;8984;49.268;12.302;2023-07-28T05:20:19;6.43;;;4.50;;
17727;SDS011;8984;49.268;12.302;2023-07-28T05:22:45;6.90;;;5.13;;
17727;SDS011;8984;49.268;12.302;2023-07-28T05:25:12;5.70;;;4.27;;
17727;SDS011;8984;49.268;12.302;2023-07-28T05:27:39;4.93;;;4.20;;
17727;SDS011;8984;49.268;12.302;2023-07-28T05:30:08;6.07;;;4.03;;
17727;SDS011;8984;49.268;12.302;2023-07-28T05:32:35;6.23;;;3.97;;
17727;SDS011;8984;49.268;12.302;2023-07-28T05:35:02;4.00;;;3.53;;
17727;SDS011;8984;49.268;12.302;2023-07-28T05:37:30;4.37;;;3.83;;
17727;SDS011;8984;49.268;12.302;2023-07-28T05:39:56;5.87;;;4.10;;
17727;SDS011;8984;49.268;12.302;2023-07-28T05:42:23;4.67;;;4.23;;
17727;SDS011;8984;49.268;12.302;2023-07-28T05:44:51;7.43;;;4.13;;
17727;SDS011;8984;49.268;12.302;2023-07-28T05:47:21;5.30;;;4.10;;
17727;SDS011;8984;49.268;12.302;2023-07-28T05:49:48;6.40;;;5.23;;
17727;SDS011;8984;49.268;12.302;2023-07-28T05:52:15;4.97;;;4.27;;
17727;SDS011;8984;49.268;12.302;2023-07-28T05:54:41;6.67;;;4.73;;
17727;SDS011;8984;49.268;12.302;2023-07-28T05:57:08;7.27;;;5.10;;
17727;SDS011;8984;49.268;12.302;2023-07-28T05:59:35;5.47;;;4.80;;
17727;SDS011;8984;49.268;12.302;2023-07-28T06:02:02;8.00;;;4.90;;
17727;SDS011;8984;49.268;12.302;2023-07-28T06:04:31;6.40;;;4.90;;
17727;SDS011;8984;49.268;12.302;2023-07-28T06:06:57;7.53;;;5.03;;
17727;SDS011;8984;49.268;12.302;2023-07-28T06:09:24;7.03;;;4.70;;
17727;SDS011;8984;49.268;12.302;2023-07-28T06:11:51;8.50;;;4.93;;
17727;SDS011;8984;49.268;12.302;2023-07-28T06:14:18;8.70;;;4.90;;
17727;SDS011;8984;49.268;12.302;2023-07-28T06:16:45;7.50;;;5.07;;
17727;SDS011;8984;49.268;12.302;2023-07-28T06:19:12;5.83;;;5.13;;
17727;SDS011;8984;49.268;12.302;2023-07-28T06:21:40;5.17;;;4.17;;
17727;SDS011;8984;49.268;12.302;2023-07-28T06:24:07;8.37;;;4.60;;
17727;SDS011;8984;49.268;12.302;2023-07-28T06:26:33;5.93;;;4.67;;
17727;SDS011;8984;49.268;12.302;2023-07-28T06:29:00;7.93;;;4.30;;
17727;SDS011;8984;49.268;12.302;2023-07-28T06:31:27;7.30;;;4.03;;
17727;SDS011;8984;49.268;12.302;2023-07-28T06:33:54;6.27;;;4.70;;
17727;SDS011;8984;49.268;12.302;2023-07-28T06:36:21;7.63;;;4.72;;
17727;SDS011;8984;49.268;12.302;2023-07-28T06:38:49;6.03;;;4.30;;
17727;SDS011;8984;49.268;12.302;2023-07-28T06:41:18;5.50;;;4.70;;
17727;SDS011;8984;49.268;12.302;2023-07-28T06:43:44;4.77;;;4.10;;
17727;SDS011;8984;49.268;12.302;2023-07-28T06:46:13;6.40;;;4.63;;
17727;SDS011;8984;49.268;12.302;2023-07-28T06:48:40;5.65;;;5.00;;
17727;SDS011;8984;49.268;12.302;2023-07-28T06:51:07;6.80;;;5.07;;
17727;SDS011;8984;49.268;12.302;2023-07-28T06:53:33;7.00;;;4.65;;
17727;SDS011;8984;49.268;12.302;2023-07-28T06:56:02;9.10;;;4.72;;
17727;SDS011;8984;49.268;12.302;2023-07-28T06:58:29;4.28;;;3.88;;
17727;SDS011;8984;49.268;12.302;2023-07-28T07:00:56;8.82;;;4.15;;
17727;SDS011;8984;49.268;12.302;2023-07-28T07:03:23;6.78;;;4.70;;
17727;SDS011;8984;49.268;12.302;2023-07-28T07:05:50;5.47;;;4.43;;
17727;SDS011;8984;49.268;12.302;2023-07-28T07:08:16;6.97;;;4.13;;
17727;SDS011;8984;49.268;12.302;2023-07-28T07:10:46;6.72;;;4.15;;
17727;SDS011;8984;49.268;12.302;2023-07-28T07:13:15;8.93;;;3.88;;
17727;SDS011;8984;49.268;12.302;2023-07-28T07:15:42;6.55;;;4.55;;
17727;SDS011;8984;49.268;12.302;2023-07-28T07:18:10;7.57;;;4.72;;
17727;SDS011;8984;49.268;12.302;2023-07-28T07:20:37;5.10;;;3.90;;
17727;SDS011;8984;49.268;12.302;2023-07-28T07:23:04;6.35;;;3.83;;
17727;SDS011;8984;49.268;12.302;2023-07-28T07:25:31;4.38;;;3.97;;
17727;SDS011;8984;49.268;12.302;2023-07-28T07:27:58;7.70;;;4.03;;
17727;SDS011;8984;49.268;12.302;2023-07-28T07:30:26;3.63;;;3.33;;
17727;SDS011;8984;49.268;12.302;2023-07-28T07:32:54;4.32;;;3.55;;
17727;SDS011;8984;49.268;12.302;2023-07-28T07:35:21;5.82;;;3.53;;
17727;SDS011;8984;49.268;12.302;2023-07-28T07:37:47;4.20;;;3.38;;
17727;SDS011;8984;49.268;12.302;2023-07-28T07:40:14;4.32;;;3.33;;
17727;SDS011;8984;49.268;12.302;2023-07-28T07:42:41;7.22;;;3.92;;
17727;SDS011;8984;49.268;12.302;2023-07-28T07:45:10;7.53;;;4.20;;
17727;SDS011;8984;49.268;12.302;2023-07-28T07:47:39;4.80;;;3.33;;
17727;SDS011;8984;49.268;12.302;2023-07-28T07:50:06;5.50;;;3.40;;
17727;SDS011;8984;49.268;12.302;2023-07-28T07:52:35;4.00;;;3.20;;
17727;SDS011;8984;49.268;12.302;2023-07-28T07:55:02;3.53;;;3.20;;
17727;SDS011;8984;49.268;12.302;2023-07-28T07:57:30;5.03;;;3.53;;
17727;SDS011;8984;49.268;12.302;2023-07-28T07:59:57;4.78;;;3.17;;
17727;SDS011;8984;49.268;12.302;2023-07-28T08:02:24;4.07;;;3.50;;
17727;SDS011;8984;49.268;12.302;2023-07-28T08:04:52;7.30;;;3.60;;
17727;SDS011;8984;49.268;12.302;2023-07-28T08:07:20;5.28;;;3.00;;
17727;SDS011;8984;49.268;12.302;2023-07-28T08:09:48;5.40;;;3.60;;
17727;SDS011;8984;49.268;12.302;2023-07-28T08:12:15;4.15;;;3.60;;
17727;SDS011;8984;49.268;12.302;2023-07-28T08:14:42;4.28;;;3.50;;
17727;SDS011;8984;49.268;12.302;2023-07-28T08:17:11;5.10;;;3.50;;
17727;SDS011;8984;49.268;12.302;2023-07-28T08:19:38;5.43;;;3.90;;
17727;SDS011;8984;49.268;12.302;2023-07-28T08:22:06;5.13;;;3.83;;
17727;SDS011;8984;49.268;12.302;2023-07-28T08:24:34;3.97;;;3.58;;
17727;SDS011;8984;49.268;12.302;2023-07-28T08:27:01;6.30;;;3.75;;
17727;SDS011;8984;49.268;12.302;2023-07-28T08:29:28;5.18;;;3.47;;
17727;SDS011;8984;49.268;12.302;2023-07-28T08:31:54;3.90;;;3.50;;
17727;SDS011;8984;49.268;12.302;2023-07-28T08:34:21;4.20;;;3.40;;
17727;SDS011;8984;49.268;12.302;2023-07-28T08:36:48;5.20;;;3.10;;
17727;SDS011;8984;49.268;12.302;2023-07-28T08:39:17;4.63;;;3.05;;
17727;SDS011;8984;49.268;12.302;2023-07-28T08:41:44;4.25;;;3.50;;
17727;SDS011;8984;49.268;12.302;2023-07-28T08:44:11;9.40;;;3.50;;
17727;SDS011;8984;49.268;12.302;2023-07-28T08:46:37;4.05;;;3.08;;
17727;SDS011;8984;49.268;12.302;2023-07-28T08:49:04;3.80;;;3.38;;
17727;SDS011;8984;49.268;12.302;2023-07-28T08:51:31;5.40;;;3.78;;
17727;SDS011;8984;49.268;12.302;2023-07-28T08:53:58;4.40;;;3.67;;
17727;SDS011;8984;49.268;12.302;2023-07-28T08:56:26;4.63;;;3.92;;
17727;SDS011;8984;49.268;12.302;2023-07-28T08:58:57;5.05;;;3.95;;
17727;SDS011;8984;49.268;12.302;2023-07-28T09:01:24;4.15;;;3.45;;
17727;SDS011;8984;49.268;12.302;2023-07-28T09:03:51;6.00;;;3.42;;
17727;SDS011;8984;49.268;12.302;2023-07-28T09:06:19;9.43;;;4.10;;
17727;SDS011;8984;49.268;12.302;2023-07-28T09:08:56;7.00;;;3.80;;
17727;SDS011;8984;49.268;12.302;2023-07-28T09:11:23;5.40;;;3.63;;
17727;SDS011;8984;49.268;12.302;2023-07-28T09:13:53;6.93;;;3.90;;
17727;SDS011;8984;49.268;12.302;2023-07-28T09:16:20;5.45;;;3.70;;
17727;SDS011;8984;49.268;12.302;2023-07-28T09:18:49;7.13;;;3.67;;
17727;SDS011;8984;49.268;12.302;2023-07-28T09:21:16;5.30;;;3.90;;
17727;SDS011;8984;49.268;12.302;2023-07-28T09:23:45;4.43;;;3.20;;
17727;SDS011;8984;49.268;12.302;2023-07-28T09:26:13;6.25;;;3.53;;
17727;SDS011;8984;49.268;12.302;2023-07-28T09:28:41;4.95;;;3.50;;
17727;SDS011;8984;49.268;12.302;2023-07-28T09:31:09;4.75;;;3.80;;
17727;SDS011;8984;49.268;12.302;2023-07-28T09:33:36;4.40;;;3.17;;
17727;SDS011;8984;49.268;12.302;2023-07-28T09:36:08;4.20;;;3.60;;
17727;SDS011;8984;49.268;12.302;2023-07-28T09:38:36;5.07;;;3.58;;
17727;SDS011;8984;49.268;12.302;2023-07-28T09:41:05;3.95;;;3.45;;
17727;SDS011;8984;49.268;12.302;2023-07-28T09:43:34;4.25;;;3.42;;
17727;SDS011;8984;49.268;12.302;2023-07-28T09:46:04;4.38;;;2.83;;
17727;SDS011;8984;49.268;12.302;2023-07-28T09:48:32;4.10;;;3.70;;
17727;SDS011;8984;49.268;12.302;2023-07-28T09:51:02;5.15;;;3.70;;
17727;SDS011;8984;49.268;12.302;2023-07-28T09:53:34;4.75;;;3.90;;
17727;SDS011;8984;49.268;12.302;2023-07-28T09:56:05;3.97;;;3.55;;
17727;SDS011;8984;49.268;12.302;2023-07-28T09:58:32;5.07;;;3.40;;
17727;SDS011;8984;49.268;12.302;2023-07-28T10:01:05;3.65;;;3.20;;
17727;SDS011;8984;49.268;12.302;2023-07-28T10:03:33;6.63;;;4.07;;
17727;SDS011;8984;49.268;12.302;2023-07-28T10:06:00;4.15;;;3.35;;
17727;SDS011;8984;49.268;12.302;2023-07-28T10:08:27;3.88;;;3.05;;
17727;SDS011;8984;49.268;12.302;2023-07-28T10:10:54;5.93;;;3.70;;
17727;SDS011;8984;49.268;12.302;2023-07-28T10:13:22;6.10;;;3.30;;
17727;SDS011;8984;49.268;12.302;2023-07-28T10:15:49;5.03;;;3.20;;
17727;SDS011;8984;49.268;12.302;2023-07-28T10:18:20;5.03;;;3.40;;
17727;SDS011;8984;49.268;12.302;2023-07-28T10:20:48;3.75;;;3.00;;
17727;SDS011;8984;49.268;12.302;2023-07-28T10:23:17;3.83;;;3.45;;
17727;SDS011;8984;49.268;12.302;2023-07-28T10:25:46;2.60;;;2.40;;
17727;SDS011;8984;49.268;12.302;2023-07-28T10:28:25;3.30;;;2.92;;
17727;SDS011;8984;49.268;12.302;2023-07-28T10:30:54;6.18;;;3.13;;
17727;SDS011;8984;49.268;12.302;2023-07-28T10:33:30;3.13;;;2.78;;
17727;SDS011;8984;49.268;12.302;2023-07-28T10:35:57;4.35;;;2.70;;
17727;SDS011;8984;49.268;12.302;2023-07-28T10:38:28;3.20;;;2.63;;
17727;SDS011;8984;49.268;12.302;2023-07-28T10:41:04;3.97;;;2.58;;
17727;SDS011;8984;49.268;12.302;2023-07-28T10:43:35;4.93;;;2.53;;
17727;SDS011;8984;49.268;12.302;2023-07-28T10:46:04;3.10;;;2.80;;
17727;SDS011;8984;49.268;12.302;2023-07-28T10:48:35;2.90;;;2.55;;
17727;SDS011;8984;49.268;12.302;2023-07-28T10:51:02;4.82;;;2.55;;
17727;SDS011;8984;49.268;12.302;2023-07-28T10:53:31;5.28;;;2.72;;
17727;SDS011;8984;49.268;12.302;2023-07-28T10:55:59;3.25;;;2.03;;
17727;SDS011;8984;49.268;12.302;2023-07-28T10:58:28;2.80;;;2.05;;
17727;SDS011;8984;49.268;12.302;2023-07-28T11:00:55;2.67;;;2.08;;
17727;SDS011;8984;49.268;12.302;2023-07-28T11:03:22;2.92;;;2.22;;
17727;SDS011;8984;49.268;12.302;2023-07-28T11:05:50;1.92;;;1.80;;
17727;SDS011;8984;49.268;12.302;2023-07-28T11:08:17;1.88;;;1.58;;
17727;SDS011;8984;49.268;12.302;2023-07-28T11:10:44;4.13;;;1.90;;
17727;SDS011;8984;49.268;12.302;2023-07-28T11:13:11;1.85;;;1.60;;
17727;SDS011;8984;49.268;12.302;2023-07-28T11:15:39;1.60;;;1.50;;
17727;SDS011;8984;49.268;12.302;2023-07-28T11:18:06;1.90;;;1.70;;
17727;SDS011;8984;49.268;12.302;2023-07-28T11:20:34;1.50;;;1.40;;
17727;SDS011;8984;49.268;12.302;2023-07-28T11:23:03;2.30;;;1.90;;
17727;SDS011;8984;49.268;12.302;2023-07-28T11:25:32;1.70;;;1.60;;
17727;SDS011;8984;49.268;12.302;2023-07-28T11:28:01;1.73;;;1.63;;
17727;SDS011;8984;49.268;12.302;2023-07-28T11:30:30;1.75;;;1.58;;
17727;SDS011;8984;49.268;12.302;2023-07-28T11:32:59;3.65;;;1.70;;
17727;SDS011;8984;49.268;12.302;2023-07-28T11:35:29;1.70;;;1.60;;
17727;SDS011;8984;49.268;12.302;2023-07-28T11:37:56;1.85;;;1.67;;
17727;SDS011;8984;49.268;12.302;2023-07-28T11:40:25;1.73;;;1.35;;
17727;SDS011;8984;49.268;12.302;2023-07-28T11:42:53;2.28;;;2.08;;
17727;SDS011;8984;49.268;12.302;2023-07-28T11:45:21;2.70;;;2.05;;
17727;SDS011;8984;49.268;12.302;2023-07-28T11:47:55;2.10;;;1.90;;
17727;SDS011;8984;49.268;12.302;2023-07-28T11:50:23;2.15;;;1.50;;
17727;SDS011;8984;49.268;12.302;2023-07-28T11:52:50;1.83;;;1.63;;
17727;SDS011;8984;49.268;12.302;2023-07-28T11:55:17;1.85;;;1.60;;
17727;SDS011;8984;49.268;12.302;2023-07-28T11:57:47;1.88;;;1.70;;
17727;SDS011;8984;49.268;12.302;2023-07-28T12:00:14;1.75;;;1.63;;
17727;SDS011;8984;49.268;12.302;2023-07-28T12:02:42;2.17;;;1.88;;
17727;SDS011;8984;49.268;12.302;2023-07-28T12:05:14;2.35;;;1.85;;
17727;SDS011;8984;49.268;12.302;2023-07-28T12:07:46;2.45;;;2.10;;
17727;SDS011;8984;49.268;12.302;2023-07-28T12:10:14;2.13;;;1.92;;
17727;SDS011;8984;49.268;12.302;2023-07-28T12:12:43;2.30;;;1.90;;
17727;SDS011;8984;49.268;12.302;2023-07-28T12:15:20;2.20;;;2.00;;
17727;SDS011;8984;49.268;12.302;2023-07-28T12:18:03;1.85;;;1.60;;
17727;SDS011;8984;49.268;12.302;2023-07-28T12:20:35;2.00;;;1.80;;
17727;SDS011;8984;49.268;12.302;2023-07-28T12:23:06;2.00;;;1.80;;
17727;SDS011;8984;49.268;12.302;2023-07-28T12:25:34;2.17;;;1.50;;
17727;SDS011;8984;49.268;12.302;2023-07-28T12:28:02;2.75;;;1.80;;
17727;SDS011;8984;49.268;12.302;2023-07-28T12:30:31;1.77;;;1.67;;
17727;SDS011;8984;49.268;12.302;2023-07-28T12:32:58;1.73;;;1.50;;
17727;SDS011;8984;49.268;12.302;2023-07-28T12:35:25;3.55;;;1.67;;
17727;SDS011;8984;49.268;12.302;2023-07-28T12:37:56;2.42;;;2.20;;
17727;SDS011;8984;49.268;12.302;2023-07-28T12:40:24;1.95;;;1.77;;
17727;SDS011;8984;49.268;12.302;2023-07-28T12:42:52;2.25;;;1.92;;
17727;SDS011;8984;49.268;12.302;2023-07-28T12:45:19;2.10;;;1.85;;
17727;SDS011;8984;49.268;12.302;2023-07-28T12:47:48;5.53;;;1.70;;
17727;SDS011;8984;49.268;12.302;2023-07-28T12:50:15;3.90;;;1.50;;
17727;SDS011;8984;49.268;12.302;2023-07-28T12:52:42;2.53;;;1.83;;
17727;SDS011;8984;49.268;12.302;2023-07-28T12:55:09;2.58;;;1.60;;
17727;SDS011;8984;49.268;12.302;2023-07-28T12:57:36;3.25;;;1.30;;
17727;SDS011;8984;49.268;12.302;2023-07-28T13:00:03;1.45;;;1.30;;
17727;SDS011;8984;49.268;12.302;2023-07-28T13:02:37;1.58;;;0.90;;
17727;SDS011;8984;49.268;12.302;2023-07-28T13:05:06;1.10;;;0.95;;
17727;SDS011;8984;49.268;12.302;2023-07-28T13:07:35;1.08;;;1.00;;
17727;SDS011;8984;49.268;12.302;2023-07-28T13:10:02;2.88;;;1.00;;
17727;SDS011;8984;49.268;12.302;2023-07-28T13:12:29;0.88;;;0.77;;
17727;SDS011;8984;49.268;12.302;2023-07-28T13:14:56;1.20;;;0.90;;
17727;SDS011;8984;49.268;12.302;2023-07-28T13:17:23;0.80;;;0.80;;
17727;SDS011;8984;49.268;12.302;2023-07-28T13:19:50;1.20;;;0.80;;
17727;SDS011;8984;49.268;12.302;2023-07-28T13:22:18;1.00;;;0.90;;
17727;SDS011;8984;49.268;12.302;2023-07-28T13:24:45;0.70;;;0.70;;
17727;SDS011;8984;49.268;12.302;2023-07-28T13:27:11;1.38;;;1.00;;
17727;SDS011;8984;49.268;12.302;2023-07-28T13:29:38;1.00;;;0.90;;
17727;SDS011;8984;49.268;12.302;2023-07-28T13:32:14;1.08;;;0.98;;
17727;SDS011;8984;49.268;12.302;2023-07-28T13:34:42;1.02;;;0.90;;
17727;SDS011;8984;49.268;12.302;2023-07-28T13:37:09;0.93;;;0.80;;
17727;SDS011;8984;49.268;12.302;2023-07-28T13:39:37;0.80;;;0.80;;
17727;SDS011;8984;49.268;12.302;2023-07-28T13:42:04;1.45;;;1.10;;
17727;SDS011;8984;49.268;12.302;2023-07-28T13:44:30;1.00;;;0.90;;
17727;SDS011;8984;49.268;12.302;2023-07-28T13:46:57;0.80;;;0.80;;
17727;SDS011;8984;49.268;12.302;2023-07-28T13:49:24;1.25;;;1.00;;
17727;SDS011;8984;49.268;12.302;2023-07-28T13:51:51;1.20;;;0.93;;
17727;SDS011;8984;49.268;12.302;2023-07-28T13:54:18;1.00;;;0.90;;
17727;SDS011;8984;49.268;12.302;2023-07-28T13:56:46;1.38;;;1.10;;
17727;SDS011;8984;49.268;12.302;2023-07-28T13:59:13;1.05;;;0.90;;
17727;SDS011;8984;49.268;12.302;2023-07-28T14:01:40;1.00;;;0.90;;
17727;SDS011;8984;49.268;12.302;2023-07-28T14:04:07;0.90;;;0.90;;
17727;SDS011;8984;49.268;12.302;2023-07-28T14:06:34;1.08;;;0.90;;
17727;SDS011;8984;49.268;12.302;2023-07-28T14:09:00;3.30;;;1.05;;
17727;SDS011;8984;49.268;12.302;2023-07-28T14:11:27;2.90;;;0.70;;
17727;SDS011;8984;49.268;12.302;2023-07-28T14:13:55;0.95;;;0.85;;
17727;SDS011;8984;49.268;12.302;2023-07-28T14:16:22;2.25;;;1.00;;
17727;SDS011;8984;49.268;12.302;2023-07-28T14:18:49;0.90;;;0.90;;
17727;SDS011;8984;49.268;12.302;2023-07-28T14:21:16;1.20;;;0.80;;
17727;SDS011;8984;49.268;12.302;2023-07-28T14:23:43;0.90;;;0.90;;
17727;SDS011;8984;49.268;12.302;2023-07-28T14:26:10;0.85;;;0.80;;
17727;SDS011;8984;49.268;12.302;2023-07-28T14:28:37;1.00;;;0.80;;
17727;SDS011;8984;49.268;12.302;2023-07-28T14:31:05;2.53;;;0.80;;
17727;SDS011;8984;49.268;12.302;2023-07-28T14:33:32;0.80;;;0.60;;
17727;SDS011;8984;49.268;12.302;2023-07-28T14:35:58;1.13;;;0.80;;
17727;SDS011;8984;49.268;12.302;2023-07-28T14:38:25;1.33;;;0.70;;
17727;SDS011;8984;49.268;12.302;2023-07-28T14:40:52;1.02;;;0.68;;
17727;SDS011;8984;49.268;12.302;2023-07-28T14:43:19;1.58;;;0.70;;
17727;SDS011;8984;49.268;12.302;2023-07-28T14:45:48;0.68;;;0.68;;
17727;SDS011;8984;49.268;12.302;2023-07-28T14:48:17;0.95;;;0.70;;
17727;SDS011;8984;49.268;12.302;2023-07-28T14:50:44;2.05;;;0.80;;
17727;SDS011;8984;49.268;12.302;2023-07-28T14:55:59;0.82;;;0.77;;
17727;SDS011;8984;49.268;12.302;2023-07-28T14:58:27;1.40;;;0.73;;